createdAt,value
2019-02-18T00:00:21.555Z,3.56
2019-02-18T00:02:49.833Z,3.46
2019-02-18T00:05:18.156Z,3.50
2019-02-18T00:07:46.449Z,3.51
2019-02-18T00:10:14.788Z,3.45
2019-02-18T00:12:43.051Z,3.35
2019-02-18T00:15:11.312Z,3.36
2019-02-18T00:17:39.608Z,3.36
2019-02-18T00:20:07.855Z,3.32
2019-02-18T00:22:36.107Z,3.32
2019-02-18T00:25:04.912Z,3.29
2019-02-18T00:27:33.165Z,3.15
2019-02-18T00:30:01.450Z,3.13
2019-02-18T00:32:29.725Z,3.14
2019-02-18T00:34:58.026Z,3.11
2019-02-18T00:37:26.273Z,3.05
2019-02-18T00:39:54.552Z,2.96
2019-02-18T00:42:22.795Z,2.97
2019-02-18T00:44:51.064Z,3.03
2019-02-18T00:47:19.320Z,3.02
2019-02-18T00:49:47.586Z,3.02
2019-02-18T00:52:15.850Z,2.93
2019-02-18T00:54:45.606Z,2.96
2019-02-18T00:57:23.826Z,2.93
2019-02-18T00:59:52.112Z,2.88
2019-02-18T01:02:20.358Z,2.86
2019-02-18T01:04:48.697Z,2.83
2019-02-18T01:07:16.972Z,2.81
2019-02-18T01:09:45.229Z,2.79
2019-02-18T01:12:13.501Z,2.69
2019-02-18T01:14:41.760Z,2.71
2019-02-18T01:17:10.037Z,2.69
2019-02-18T01:19:38.368Z,2.64
2019-02-18T01:22:07.393Z,2.60
2019-02-18T01:24:35.636Z,2.64
2019-02-18T01:27:03.937Z,2.64
2019-02-18T01:29:32.307Z,2.62
2019-02-18T01:32:00.597Z,2.62
2019-02-18T01:34:28.866Z,2.58
2019-02-18T01:36:57.162Z,2.57
2019-02-18T01:39:28.924Z,2.56
2019-02-18T01:41:57.219Z,2.54
2019-02-18T01:44:25.473Z,2.53
2019-02-18T01:46:53.764Z,2.52
2019-02-18T01:49:22.033Z,2.49
2019-02-18T01:51:50.297Z,2.48
2019-02-18T01:54:18.575Z,2.46
2019-02-18T01:56:46.843Z,2.41
2019-02-18T01:59:15.121Z,2.32
2019-02-18T02:01:43.408Z,2.38
2019-02-18T02:04:11.654Z,2.33
2019-02-18T02:06:39.933Z,2.33
2019-02-18T02:09:09.855Z,2.30
2019-02-18T02:11:38.121Z,2.32
2019-02-18T02:14:06.371Z,2.30
2019-02-18T02:16:34.643Z,2.27
2019-02-18T02:19:02.897Z,2.11
2019-02-18T02:21:31.143Z,2.22
2019-02-18T02:23:59.417Z,2.20
2019-02-18T02:26:27.672Z,2.13
2019-02-18T02:28:55.948Z,2.09
2019-02-18T02:31:24.193Z,2.07
2019-02-18T02:33:52.469Z,2.06
2019-02-18T02:36:20.743Z,2.04
2019-02-18T02:38:49.064Z,2.04
2019-02-18T02:41:17.320Z,2.04
2019-02-18T02:43:45.629Z,2.00
2019-02-18T02:46:13.880Z,1.91
2019-02-18T02:48:42.159Z,1.93
2019-02-18T02:51:10.427Z,1.96
2019-02-18T02:53:38.695Z,1.95
2019-02-18T02:56:07.048Z,1.92
2019-02-18T02:58:35.344Z,1.93
2019-02-18T03:01:03.607Z,1.89
2019-02-18T03:03:31.883Z,1.88
2019-02-18T03:06:00.125Z,1.87
2019-02-18T03:08:28.406Z,1.88
2019-02-18T03:10:56.668Z,1.84
2019-02-18T03:13:24.992Z,1.82
2019-02-18T03:15:53.228Z,1.79
2019-02-18T03:18:21.488Z,1.78
2019-02-18T03:20:49.760Z,1.76
2019-02-18T03:23:18.036Z,1.74
2019-02-18T03:25:47.646Z,1.68
2019-02-18T03:31:47.916Z,1.67
2019-02-18T03:34:22.452Z,1.64
2019-02-18T03:36:50.092Z,1.68
2019-02-18T03:39:18.366Z,1.65
2019-02-18T03:41:46.621Z,1.57
2019-02-18T03:44:14.927Z,1.59
2019-02-18T03:46:43.208Z,1.56
2019-02-18T03:49:11.486Z,1.52
2019-02-18T03:51:39.781Z,1.52
2019-02-18T03:54:08.106Z,1.44
2019-02-18T03:56:36.364Z,1.51
2019-02-18T03:59:07.435Z,1.53
2019-02-18T04:01:35.679Z,1.53
2019-02-18T04:04:03.962Z,1.47
2019-02-18T04:06:32.220Z,1.44
2019-02-18T04:09:00.469Z,1.35
2019-02-18T04:11:28.778Z,1.46
2019-02-18T04:13:57.064Z,1.48
2019-02-18T04:16:25.317Z,1.48
2019-02-18T04:18:53.591Z,1.45
2019-02-18T04:21:21.864Z,1.42
2019-02-18T04:23:50.145Z,1.42
2019-02-18T04:26:18.425Z,1.41
2019-02-18T04:28:46.713Z,1.41
2019-02-18T04:31:14.973Z,1.38
2019-02-18T04:33:43.251Z,1.40
2019-02-18T04:36:11.518Z,1.37
2019-02-18T04:38:39.791Z,1.26
2019-02-18T04:41:08.039Z,1.25
2019-02-18T04:43:36.312Z,1.27
2019-02-18T04:46:04.569Z,1.33
2019-02-18T04:48:32.866Z,1.34
2019-02-18T04:51:01.133Z,1.31
2019-02-18T04:53:29.375Z,1.26
2019-02-18T04:55:57.666Z,1.22
2019-02-18T04:58:27.553Z,1.21
2019-02-18T05:00:55.888Z,1.25
2019-02-18T05:03:24.136Z,1.29
2019-02-18T05:05:52.411Z,1.30
2019-02-18T05:08:20.690Z,1.28
2019-02-18T05:10:49.009Z,1.31
2019-02-18T05:13:17.320Z,1.24
2019-02-18T05:15:45.583Z,1.16
2019-02-18T05:18:13.884Z,1.21
2019-02-18T05:20:42.200Z,1.21
2019-02-18T05:23:10.395Z,1.22
2019-02-18T05:25:38.687Z,1.25
2019-02-18T05:28:06.954Z,1.23
2019-02-18T05:30:35.302Z,1.25
2019-02-18T05:33:03.549Z,1.30
2019-02-18T05:35:31.839Z,1.26
2019-02-18T05:38:00.089Z,1.22
2019-02-18T05:40:28.387Z,1.15
2019-02-18T05:42:56.630Z,1.24
2019-02-18T05:45:24.916Z,1.22
2019-02-18T05:47:53.269Z,1.17
2019-02-18T05:50:21.604Z,1.17
2019-02-18T05:52:49.895Z,1.19
2019-02-18T05:55:18.172Z,1.13
2019-02-18T05:57:46.441Z,1.15
2019-02-18T06:00:15.660Z,1.20
2019-02-18T06:02:43.947Z,1.14
2019-02-18T06:05:12.230Z,1.10
2019-02-18T06:07:40.497Z,1.09
2019-02-18T06:10:09.466Z,1.13
2019-02-18T06:12:37.719Z,1.10
2019-02-18T06:15:08.941Z,1.11
2019-02-18T06:17:37.191Z,1.05
2019-02-18T06:20:08.111Z,1.09
2019-02-18T06:22:38.456Z,1.08
2019-02-18T06:25:06.936Z,1.07
2019-02-18T06:27:35.190Z,1.05
2019-02-18T06:30:08.088Z,0.99
2019-02-18T06:32:36.373Z,1.04
2019-02-18T06:35:05.583Z,1.02
2019-02-18T06:37:33.841Z,0.94
2019-02-18T06:40:02.112Z,0.90
2019-02-18T06:42:30.376Z,0.96
2019-02-18T06:47:43.928Z,1.01
2019-02-18T06:50:12.199Z,0.98
2019-02-18T06:52:40.456Z,1.06
2019-02-18T06:55:08.742Z,1.15
2019-02-18T06:57:41.300Z,1.23
2019-02-18T07:00:14.616Z,1.27
2019-02-18T07:02:44.509Z,1.38
2019-02-18T07:05:14.432Z,1.40
2019-02-18T07:08:02.812Z,1.37
2019-02-18T07:10:32.806Z,1.45
2019-02-18T07:13:01.080Z,1.50
2019-02-18T07:15:29.339Z,1.52
2019-02-18T07:17:57.624Z,1.54
2019-02-18T07:20:25.912Z,1.55
2019-02-18T07:22:54.178Z,1.60
2019-02-18T07:25:22.479Z,1.66
2019-02-18T07:27:50.802Z,1.64
2019-02-18T07:30:19.269Z,1.73
2019-02-18T07:32:47.985Z,1.83
2019-02-18T07:35:16.202Z,1.85
2019-02-18T07:37:44.505Z,1.97
2019-02-18T07:40:12.779Z,2.22
2019-02-18T07:42:41.063Z,2.67
2019-02-18T07:45:10.178Z,3.28
2019-02-18T07:47:38.470Z,3.87
2019-02-18T07:50:09.357Z,4.50
2019-02-18T07:52:37.619Z,5.15
2019-02-18T07:55:07.421Z,5.79
2019-02-18T07:57:35.711Z,6.34
2019-02-18T08:00:05.373Z,6.98
2019-02-18T08:02:33.653Z,7.60
2019-02-18T08:05:02.389Z,8.16
2019-02-18T08:07:30.990Z,8.70
2019-02-18T08:09:59.247Z,9.26
2019-02-18T08:12:27.716Z,9.74
2019-02-18T08:14:55.995Z,10.14
2019-02-18T08:17:37.213Z,10.62
2019-02-18T08:20:08.690Z,10.95
2019-02-18T08:22:36.974Z,11.29
2019-02-18T08:25:08.214Z,11.85
2019-02-18T08:27:36.503Z,12.09
2019-02-18T08:30:08.201Z,12.59
2019-02-18T08:32:36.477Z,12.53
2019-02-18T08:35:07.790Z,12.85
2019-02-18T08:37:36.059Z,12.91
2019-02-18T08:40:04.924Z,13.26
2019-02-18T08:42:34.243Z,13.78
2019-02-18T08:45:02.641Z,13.11
2019-02-18T08:47:30.997Z,13.13
2019-02-18T08:49:59.281Z,13.32
2019-02-18T08:52:27.573Z,13.46
2019-02-18T08:54:56.834Z,13.46
2019-02-18T08:57:25.357Z,14.26
2019-02-18T08:59:53.670Z,14.29
2019-02-18T09:02:21.946Z,14.54
2019-02-18T09:04:50.217Z,14.23
2019-02-18T09:07:18.489Z,14.65
2019-02-18T09:09:46.758Z,14.82
2019-02-18T09:12:15.025Z,14.97
2019-02-18T09:14:43.325Z,14.61
2019-02-18T09:17:11.603Z,15.04
2019-02-18T09:19:39.998Z,15.08
2019-02-18T09:22:29.191Z,15.32
2019-02-18T09:24:59.233Z,15.68
2019-02-18T09:27:27.504Z,15.51
2019-02-18T09:29:55.859Z,15.95
2019-02-18T09:32:24.243Z,16.20
2019-02-18T09:34:53.202Z,15.85
2019-02-18T09:37:21.802Z,16.14
2019-02-18T09:39:50.107Z,16.53
2019-02-18T09:42:18.401Z,16.97
2019-02-18T09:44:48.333Z,16.78
2019-02-18T09:47:16.648Z,16.71
2019-02-18T09:49:44.914Z,17.06
2019-02-18T09:52:13.301Z,17.29
2019-02-18T09:54:41.553Z,16.65
2019-02-18T09:57:09.888Z,16.41
2019-02-18T09:59:38.179Z,15.76
2019-02-18T10:02:06.439Z,15.12
2019-02-18T10:04:34.724Z,14.88
2019-02-18T10:07:03.044Z,14.84
2019-02-18T10:09:31.324Z,14.70
2019-02-18T10:11:59.611Z,13.91
2019-02-18T10:14:27.886Z,13.90
2019-02-18T10:16:56.178Z,14.70
2019-02-18T10:19:24.526Z,14.12
2019-02-18T10:21:52.812Z,13.68
2019-02-18T10:24:21.076Z,13.83
2019-02-18T10:26:49.344Z,14.19
2019-02-18T10:29:17.621Z,13.36
2019-02-18T10:31:45.944Z,13.09
2019-02-18T10:34:14.235Z,12.87
2019-02-18T10:36:42.519Z,13.19
2019-02-18T10:39:10.813Z,13.02
2019-02-18T10:41:39.071Z,13.29
2019-02-18T10:44:07.367Z,12.61
2019-02-18T10:46:35.658Z,12.70
2019-02-18T10:49:03.977Z,12.34
2019-02-18T10:51:32.488Z,12.72
2019-02-18T10:54:00.773Z,12.84
2019-02-18T10:56:29.414Z,12.42
2019-02-18T10:58:57.700Z,12.37
2019-02-18T11:01:25.971Z,12.46
2019-02-18T11:03:55.916Z,12.28
2019-02-18T11:06:24.355Z,12.43
2019-02-18T11:08:52.809Z,12.98
2019-02-18T11:11:21.111Z,12.86
2019-02-18T11:13:49.477Z,12.95
2019-02-18T11:16:17.786Z,12.59
2019-02-18T11:18:46.082Z,12.46
2019-02-18T11:21:14.347Z,12.75
2019-02-18T11:23:42.630Z,13.04
2019-02-18T11:26:10.901Z,13.09
2019-02-18T11:28:39.190Z,13.18
2019-02-18T11:31:07.463Z,13.27
2019-02-18T11:33:35.827Z,13.13
2019-02-18T11:36:04.095Z,13.04
2019-02-18T11:38:32.370Z,12.82
2019-02-18T11:41:00.627Z,12.77
2019-02-18T11:43:28.946Z,12.56
2019-02-18T11:45:57.220Z,12.74
2019-02-18T11:48:25.501Z,12.61
2019-02-18T11:50:54.057Z,12.72
2019-02-18T11:53:22.326Z,12.65
2019-02-18T11:55:50.620Z,12.97
2019-02-18T11:58:18.902Z,12.84
2019-02-18T12:00:47.196Z,12.80
2019-02-18T12:03:15.437Z,13.13
2019-02-18T12:05:44.207Z,12.91
2019-02-18T12:08:12.448Z,12.82
2019-02-18T12:10:40.842Z,13.27
2019-02-18T12:13:09.186Z,13.12
2019-02-18T12:15:37.485Z,13.03
2019-02-18T12:18:05.857Z,13.01
2019-02-18T12:20:34.157Z,12.70
2019-02-18T12:23:02.793Z,13.10
2019-02-18T12:25:31.078Z,13.08
2019-02-18T12:28:25.311Z,13.02
2019-02-18T12:30:53.631Z,13.24
2019-02-18T12:33:21.878Z,13.19
2019-02-18T12:35:50.146Z,12.98
2019-02-18T12:38:18.398Z,13.12
2019-02-18T12:40:46.674Z,13.07
2019-02-18T12:43:14.949Z,13.14
2019-02-18T12:45:43.226Z,13.08
2019-02-18T12:48:11.483Z,13.24
2019-02-18T12:50:39.830Z,13.19
2019-02-18T12:53:09.834Z,13.19
2019-02-18T12:55:38.133Z,13.23
2019-02-18T12:58:06.459Z,13.61
2019-02-18T13:00:34.927Z,13.43
2019-02-18T13:03:03.189Z,13.58
2019-02-18T13:05:31.467Z,13.56
2019-02-18T13:07:59.785Z,13.68
2019-02-18T13:10:34.578Z,13.95
2019-02-18T13:13:00.933Z,13.96
2019-02-18T13:15:29.210Z,14.66
2019-02-18T13:17:57.463Z,15.32
2019-02-18T13:20:25.728Z,15.50
2019-02-18T13:22:54.006Z,15.32
2019-02-18T13:25:22.294Z,15.38
2019-02-18T13:27:50.643Z,16.02
2019-02-18T13:30:20.549Z,15.77
2019-02-18T13:32:48.822Z,15.57
2019-02-18T13:35:17.088Z,15.64
2019-02-18T13:37:45.432Z,15.90
2019-02-18T13:40:31.895Z,15.75
2019-02-18T13:43:10.870Z,15.74
2019-02-18T13:45:42.426Z,15.81
2019-02-18T13:48:10.698Z,16.16
2019-02-18T13:50:38.967Z,16.16
2019-02-18T13:53:07.619Z,16.13
2019-02-18T13:55:36.082Z,15.82
2019-02-18T13:58:04.337Z,15.37
2019-02-18T14:00:32.630Z,15.42
2019-02-18T14:03:00.919Z,15.19
2019-02-18T14:05:29.286Z,14.97
2019-02-18T14:08:02.832Z,15.26
2019-02-18T14:10:31.149Z,15.06
2019-02-18T14:12:59.444Z,14.90
2019-02-18T14:15:27.814Z,15.32
2019-02-18T14:17:56.109Z,15.14
2019-02-18T14:20:24.462Z,14.70
2019-02-18T14:22:58.079Z,14.69
2019-02-18T14:25:26.393Z,14.79
2019-02-18T14:27:54.858Z,14.80
2019-02-18T14:30:23.154Z,14.62
2019-02-18T14:32:51.451Z,14.45
2019-02-18T14:35:19.712Z,14.44
2019-02-18T14:37:48.526Z,14.33
2019-02-18T14:40:22.402Z,14.30
2019-02-18T14:42:50.661Z,14.31
2019-02-18T14:45:18.952Z,14.19
2019-02-18T14:47:47.218Z,14.18
2019-02-18T14:50:17.458Z,14.06
2019-02-18T14:52:46.056Z,14.02
2019-02-18T14:55:14.605Z,14.03
2019-02-18T14:57:42.900Z,14.05
2019-02-18T15:00:19.202Z,13.90
2019-02-18T15:02:47.571Z,13.80
2019-02-18T15:05:15.830Z,13.70
2019-02-18T15:07:44.385Z,13.71
2019-02-18T15:10:13.812Z,13.71
2019-02-18T15:12:42.093Z,13.61
2019-02-18T15:15:10.916Z,13.61
2019-02-18T15:17:39.208Z,13.44
2019-02-18T15:20:08.617Z,13.44
2019-02-18T15:22:37.290Z,13.32
2019-02-18T15:25:07.996Z,13.36
2019-02-18T15:27:36.281Z,13.24
2019-02-18T15:30:08.170Z,13.15
2019-02-18T15:32:39.770Z,13.06
2019-02-18T15:35:08.061Z,12.96
2019-02-18T15:37:36.534Z,12.87
2019-02-18T15:40:07.748Z,12.93
2019-02-18T15:42:41.845Z,12.86
2019-02-18T15:45:06.963Z,12.78
2019-02-18T15:47:35.301Z,12.68
2019-02-18T15:50:04.046Z,12.59
2019-02-18T15:52:38.253Z,12.51
2019-02-18T15:55:06.811Z,12.40
2019-02-18T15:57:35.087Z,12.31
2019-02-18T16:00:03.823Z,12.26
2019-02-18T16:02:32.094Z,12.18
2019-02-18T16:05:00.362Z,12.09
2019-02-18T16:07:28.684Z,12.03
2019-02-18T16:09:56.940Z,11.99
2019-02-18T16:12:30.985Z,11.91
2019-02-18T16:14:59.283Z,11.81
2019-02-18T16:17:27.652Z,11.71
2019-02-18T16:19:55.924Z,11.63
2019-02-18T16:22:24.309Z,11.55
2019-02-18T16:24:54.280Z,11.49
2019-02-18T16:27:22.595Z,11.40
2019-02-18T16:29:50.841Z,11.32
2019-02-18T16:32:19.161Z,11.25
2019-02-18T16:34:47.447Z,11.17
2019-02-18T16:37:16.181Z,11.07
2019-02-18T16:39:44.455Z,10.97
2019-02-18T16:42:12.748Z,10.88
2019-02-18T16:44:41.057Z,10.46
2019-02-18T16:47:09.353Z,10.75
2019-02-18T16:49:38.156Z,10.67
2019-02-18T16:55:35.616Z,10.44
2019-02-18T16:58:03.942Z,10.26
2019-02-18T17:00:33.382Z,10.18
2019-02-18T17:03:01.687Z,10.09
2019-02-18T17:05:30.264Z,9.98
2019-02-18T17:08:10.353Z,9.91
2019-02-18T17:10:38.616Z,9.80
2019-02-18T17:13:08.479Z,9.69
2019-02-18T17:15:36.947Z,9.60
2019-02-18T17:18:05.222Z,9.50
2019-02-18T17:20:33.483Z,9.41
2019-02-18T17:23:01.754Z,9.30
2019-02-18T17:25:30.378Z,9.22
2019-02-18T17:27:58.655Z,9.15
2019-02-18T17:30:26.924Z,9.03
2019-02-18T17:32:55.252Z,8.98
2019-02-18T17:35:25.642Z,8.92
2019-02-18T17:37:53.929Z,8.82
2019-02-18T17:40:22.793Z,8.75
2019-02-18T17:42:51.084Z,8.61
2019-02-18T17:45:19.467Z,8.56
2019-02-18T17:47:47.740Z,8.50
2019-02-18T17:50:16.992Z,8.40
2019-02-18T17:52:50.155Z,8.36
2019-02-18T17:55:23.068Z,8.30
2019-02-18T17:57:51.376Z,8.21
2019-02-18T18:00:31.468Z,8.16
2019-02-18T18:02:59.754Z,8.10
2019-02-18T18:05:28.014Z,8.05
2019-02-18T18:07:56.419Z,8.00
2019-02-18T18:10:24.961Z,7.96
2019-02-18T18:12:53.240Z,7.92
2019-02-18T18:15:21.545Z,7.87
2019-02-18T18:17:49.825Z,7.79
2019-02-18T18:20:19.833Z,7.73
2019-02-18T18:22:48.136Z,7.63
2019-02-18T18:25:18.457Z,7.58
2019-02-18T18:27:46.728Z,7.50
2019-02-18T18:30:17.548Z,7.42
2019-02-18T18:32:45.984Z,7.32
2019-02-18T18:35:14.403Z,7.26
2019-02-18T18:37:42.658Z,7.23
2019-02-18T18:40:13.687Z,7.15
2019-02-18T18:42:42.376Z,7.12
2019-02-18T18:45:15.694Z,7.09
2019-02-18T18:47:44.200Z,7.04
2019-02-18T18:50:15.026Z,7.02
2019-02-18T18:52:43.664Z,6.97
2019-02-18T18:55:12.115Z,6.97
2019-02-18T18:57:44.934Z,6.92
2019-02-18T19:00:20.837Z,6.88
2019-02-18T19:02:49.118Z,6.78
2019-02-18T19:05:17.977Z,6.79
2019-02-18T19:07:52.483Z,6.67
2019-02-18T19:10:20.797Z,6.59
2019-02-18T19:12:49.113Z,6.61
2019-02-18T19:15:20.492Z,6.50
2019-02-18T19:17:48.768Z,6.49
2019-02-18T19:20:17.129Z,6.46
2019-02-18T19:22:45.410Z,6.39
2019-02-18T19:25:13.892Z,6.38
2019-02-18T19:27:42.161Z,6.34
2019-02-18T19:30:22.886Z,6.36
2019-02-18T19:32:51.140Z,6.30
2019-02-18T19:35:19.479Z,6.27
2019-02-18T19:37:47.734Z,6.22
2019-02-18T19:40:16.160Z,6.15
2019-02-18T19:42:46.052Z,6.14
2019-02-18T19:45:22.891Z,6.02
2019-02-18T19:47:51.167Z,6.01
2019-02-18T19:50:19.538Z,5.97
2019-02-18T19:52:47.841Z,5.90
2019-02-18T19:55:17.807Z,5.94
2019-02-18T19:57:46.161Z,5.92
2019-02-18T20:00:17.738Z,5.86
2019-02-18T20:02:46.021Z,5.88
2019-02-18T20:05:14.549Z,5.77
2019-02-18T20:07:44.157Z,5.76
2019-02-18T20:10:13.092Z,5.66
2019-02-18T20:12:41.389Z,5.60
2019-02-18T20:15:12.781Z,5.49
2019-02-18T20:17:41.138Z,5.42
2019-02-18T20:20:11.934Z,5.42
2019-02-18T20:22:40.214Z,5.29
2019-02-18T20:25:09.378Z,5.36
2019-02-18T20:27:37.654Z,5.37
2019-02-18T20:30:32.864Z,5.39
2019-02-18T20:33:04.190Z,5.35
2019-02-18T20:35:32.490Z,5.35
2019-02-18T20:38:00.762Z,5.33
2019-02-18T20:40:29.163Z,5.28
2019-02-18T20:42:57.465Z,5.20
2019-02-18T20:45:25.725Z,5.20
2019-02-18T20:47:54.002Z,5.15
2019-02-18T20:50:22.308Z,5.08
2019-02-18T20:52:50.584Z,5.09
2019-02-18T20:55:19.234Z,5.11
2019-02-18T20:58:06.930Z,5.06
2019-02-18T21:00:35.207Z,4.96
2019-02-18T21:03:03.520Z,4.90
2019-02-18T21:05:31.785Z,4.85
2019-02-18T21:08:00.167Z,4.93
2019-02-18T21:10:28.595Z,4.87
2019-02-18T21:12:56.952Z,4.81
2019-02-18T21:15:25.276Z,4.77
2019-02-18T21:17:53.630Z,4.78
2019-02-18T21:20:22.045Z,4.73
2019-02-18T21:22:50.602Z,4.65
2019-02-18T21:25:18.978Z,4.74
2019-02-18T21:27:47.290Z,4.65
2019-02-18T21:30:16.920Z,4.67
2019-02-18T21:32:45.193Z,4.63
2019-02-18T21:35:13.531Z,4.54
2019-02-18T21:37:42.288Z,4.58
2019-02-18T21:40:11.490Z,4.55
2019-02-18T21:42:39.814Z,4.55
2019-02-18T21:45:13.459Z,4.50
2019-02-18T21:47:41.735Z,4.55
2019-02-18T21:50:10.695Z,4.41
2019-02-18T21:52:39.330Z,4.55
2019-02-18T21:55:09.311Z,4.53
2019-02-18T21:57:37.580Z,4.47
2019-02-18T22:00:18.446Z,4.43
2019-02-18T22:02:46.932Z,4.46
2019-02-18T22:05:15.567Z,4.47
2019-02-18T22:07:43.832Z,4.52
2019-02-18T22:10:12.249Z,4.57
2019-02-18T22:12:40.503Z,4.59
2019-02-18T22:15:11.419Z,4.51
2019-02-18T22:17:39.692Z,4.53
2019-02-18T22:20:12.212Z,4.59
2019-02-18T22:22:40.446Z,4.64
2019-02-18T22:25:10.597Z,4.60
2019-02-18T22:27:39.240Z,4.58
2019-02-18T22:30:11.051Z,4.52
2019-02-18T22:32:39.309Z,4.46
2019-02-18T22:35:08.116Z,4.43
2019-02-18T22:37:37.983Z,4.50
2019-02-18T22:40:11.430Z,4.41
2019-02-18T22:42:39.689Z,4.44
2019-02-18T22:45:09.659Z,4.48
2019-02-18T22:47:37.938Z,4.41
2019-02-18T22:50:07.665Z,4.44
2019-02-18T22:52:36.115Z,4.50
2019-02-18T22:55:05.844Z,4.51
2019-02-18T22:57:34.130Z,4.51
2019-02-18T23:00:02.517Z,4.50
2019-02-18T23:02:30.789Z,4.50
2019-02-18T23:04:59.053Z,4.51
2019-02-18T23:07:27.327Z,4.51
2019-02-18T23:09:55.587Z,4.49
2019-02-18T23:12:23.874Z,4.46
2019-02-18T23:14:52.148Z,4.46
2019-02-18T23:17:20.432Z,4.41
2019-02-18T23:19:48.697Z,4.38
2019-02-18T23:22:16.977Z,4.35
2019-02-18T23:24:45.239Z,4.33
2019-02-18T23:27:13.532Z,4.31
2019-02-18T23:29:41.787Z,4.34
2019-02-18T23:32:10.046Z,4.32
2019-02-18T23:34:38.327Z,4.21
2019-02-18T23:37:06.663Z,4.18
2019-02-18T23:39:34.941Z,4.19
2019-02-18T23:42:03.210Z,4.17
2019-02-18T23:44:31.462Z,4.14
2019-02-18T23:46:59.725Z,4.17
2019-02-18T23:49:27.994Z,4.04
2019-02-18T23:51:56.260Z,4.04
2019-02-18T23:54:24.535Z,4.10
2019-02-18T23:56:52.775Z,4.08
2019-02-18T23:59:21.068Z,4.09
